Time;durP1;ratioP1;P1;durP2;ratioP2;P2;SDS_P1;SDS_P2;PMS_P1;PMS_P2;Temp;Humidity;BMP_temperature;BMP_pressure;BME280_temperature;BME280_humidity;BME280_pressure;Samples;Min_cycle;Max_cycle;Signal;HPM_P1;HPM_P2
2022/11/13 00:00:40;;;;;;;23.77;3.83;;;;;;;;;;5012301;28;20030;-63
2022/11/13 00:03:07;;;;;;;20.65;3.80;;;;;;;;;;5012697;28;20026;-63
2022/11/13 00:05:34;;;;;;;22.35;3.83;;;;;;;;;;5011946;28;20065;-62
2022/11/13 00:08:01;;;;;;;19.30;3.67;;;;;;;;;;5012254;28;20100;-63
2022/11/13 00:10:28;;;;;;;19.58;3.70;;;;;;;;;;5013418;28;20730;-63
2022/11/13 00:12:55;;;;;;;22.00;3.47;;;;;;;;;;5013177;28;20038;-63
2022/11/13 00:15:22;;;;;;;18.60;3.28;;;;;;;;;;5013032;28;20365;-63
2022/11/13 00:17:49;;;;;;;27.67;3.63;;;;;;;;;;5012615;28;20026;-63
2022/11/13 00:20:17;;;;;;;19.98;3.90;;;;;;;;;;5013463;28;20112;-62
2022/11/13 00:22:44;;;;;;;23.38;3.90;;;;;;;;;;5012428;28;20042;-63
2022/11/13 00:25:11;;;;;;;24.98;4.05;;;;;;;;;;5013020;28;20022;-61
2022/11/13 00:27:38;;;;;;;28.02;4.40;;;;;;;;;;5012421;28;20038;-61
2022/11/13 00:30:05;;;;;;;33.95;4.40;;;;;;;;;;5011960;28;20030;-61
2022/11/13 00:32:32;;;;;;;37.58;4.20;;;;;;;;;;5013142;28;20025;-62
2022/11/13 00:34:59;;;;;;;23.35;3.50;;;;;;;;;;5012933;28;20044;-61
2022/11/13 00:37:26;;;;;;;20.90;4.65;;;;;;;;;;5013063;28;20030;-62
2022/11/13 00:39:53;;;;;;;25.80;3.92;;;;;;;;;;5013199;28;20598;-63
2022/11/13 00:42:20;;;;;;;27.05;4.22;;;;;;;;;;5012327;28;20040;-62
2022/11/13 00:44:47;;;;;;;22.92;4.07;;;;;;;;;;5012846;28;20533;-65
2022/11/13 00:47:14;;;;;;;22.60;3.75;;;;;;;;;;5012866;28;20034;-64
2022/11/13 00:49:41;;;;;;;39.97;4.22;;;;;;;;;;5012161;28;20062;-60
2022/11/13 00:52:08;;;;;;;29.15;4.80;;;;;;;;;;5012574;28;20050;-62
2022/11/13 00:54:35;;;;;;;40.03;5.90;;;;;;;;;;5012056;28;20034;-63
2022/11/13 00:57:02;;;;;;;44.63;5.95;;;;;;;;;;5011987;28;20480;-62
2022/11/13 00:59:29;;;;;;;34.45;5.88;;;;;;;;;;5011718;28;20049;-62
2022/11/13 01:01:56;;;;;;;32.83;5.22;;;;;;;;;;5012188;28;20029;-62
2022/11/13 01:04:23;;;;;;;23.15;5.63;;;;;;;;;;5011839;28;20427;-62
2022/11/13 01:06:50;;;;;;;21.30;6.43;;;;;;;;;;5011554;28;20120;-62
2022/11/13 01:09:17;;;;;;;20.95;6.40;;;;;;;;;;5011861;28;20056;-61
2022/11/13 01:11:44;;;;;;;19.80;6.28;;;;;;;;;;5012626;28;20034;-61
2022/11/13 01:14:11;;;;;;;23.17;7.70;;;;;;;;;;5012332;28;20037;-62
2022/11/13 01:16:37;;;;;;;27.85;6.88;;;;;;;;;;5010408;28;20097;-61
2022/11/13 01:19:04;;;;;;;22.70;7.82;;;;;;;;;;5009828;28;20077;-63
2022/11/13 01:21:31;;;;;;;25.02;8.07;;;;;;;;;;5010907;28;20049;-62
2022/11/13 01:23:58;;;;;;;22.70;8.15;;;;;;;;;;5010527;28;20026;-61
2022/11/13 01:26:27;;;;;;;23.63;8.35;;;;;;;;;;5010381;28;20077;-62
2022/11/13 01:28:55;;;;;;;24.77;7.32;;;;;;;;;;5010994;28;20030;-60
2022/11/13 01:31:24;;;;;;;20.70;7.30;;;;;;;;;;5010619;28;20030;-62
2022/11/13 01:33:51;;;;;;;20.70;7.03;;;;;;;;;;5011876;28;20117;-61
2022/11/13 01:36:20;;;;;;;22.42;7.40;;;;;;;;;;5011698;28;20025;-62
2022/11/13 01:38:47;;;;;;;17.75;6.80;;;;;;;;;;5011395;28;20029;-61
2022/11/13 01:41:25;;;;;;;16.98;6.20;;;;;;;;;;5011220;28;20041;-61
2022/11/13 01:43:53;;;;;;;19.20;6.70;;;;;;;;;;5011452;28;20104;-62
2022/11/13 01:46:27;;;;;;;18.17;6.32;;;;;;;;;;5011479;28;20157;-62
2022/11/13 01:49:18;;;;;;;16.65;5.93;;;;;;;;;;5010236;28;20033;-61
2022/11/13 01:51:54;;;;;;;16.27;6.35;;;;;;;;;;5011929;28;20046;-61
2022/11/13 01:54:27;;;;;;;16.05;6.53;;;;;;;;;;5011683;28;20112;-62
2022/11/13 01:56:55;;;;;;;17.83;6.18;;;;;;;;;;5011770;28;20018;-61
2022/11/13 01:59:24;;;;;;;23.40;6.82;;;;;;;;;;5012050;28;20500;-60
2022/11/13 02:01:51;;;;;;;24.92;6.47;;;;;;;;;;5010671;28;20539;-61
2022/11/13 02:04:18;;;;;;;12.23;5.93;;;;;;;;;;5012132;28;20029;-60
2022/11/13 02:06:54;;;;;;;22.42;6.13;;;;;;;;;;5011207;28;20033;-62
2022/11/13 02:09:24;;;;;;;15.90;6.13;;;;;;;;;;5013962;28;20025;-61
2022/11/13 02:11:52;;;;;;;16.25;6.03;;;;;;;;;;5014394;28;20373;-61
2022/11/13 02:14:20;;;;;;;16.30;5.93;;;;;;;;;;5013183;28;20025;-62
2022/11/13 02:16:49;;;;;;;15.25;5.75;;;;;;;;;;5011820;28;20026;-62
2022/11/13 02:19:36;;;;;;;16.40;5.82;;;;;;;;;;5012976;28;20021;-63
2022/11/13 02:22:20;;;;;;;19.00;5.53;;;;;;;;;;5009815;28;20037;-62
2022/11/13 02:24:47;;;;;;;15.07;5.80;;;;;;;;;;5014132;28;20038;-62
2022/11/13 02:27:22;;;;;;;20.52;6.03;;;;;;;;;;5014040;28;20396;-62
2022/11/13 02:29:50;;;;;;;15.70;5.75;;;;;;;;;;5014677;28;20096;-63
2022/11/13 02:32:17;;;;;;;14.25;5.18;;;;;;;;;;5014809;28;20030;-62
2022/11/13 02:34:44;;;;;;;11.93;5.53;;;;;;;;;;5013048;28;20061;-63
2022/11/13 02:37:11;;;;;;;16.60;5.30;;;;;;;;;;5013683;28;20047;-62
2022/11/13 02:39:39;;;;;;;15.65;5.35;;;;;;;;;;5014654;28;20076;-62
2022/11/13 02:42:06;;;;;;;19.17;5.22;;;;;;;;;;5013461;28;20404;-63
2022/11/13 02:44:33;;;;;;;18.50;5.43;;;;;;;;;;5014514;28;20065;-62
2022/11/13 02:47:00;;;;;;;15.10;5.55;;;;;;;;;;5012921;28;20510;-62
2022/11/13 02:49:28;;;;;;;25.30;6.05;;;;;;;;;;5014204;28;20032;-64
2022/11/13 02:51:55;;;;;;;15.63;5.28;;;;;;;;;;5014406;28;20548;-62
2022/11/13 02:54:22;;;;;;;10.80;4.75;;;;;;;;;;5014486;28;20141;-62
2022/11/13 02:56:49;;;;;;;13.02;5.68;;;;;;;;;;5014530;28;20029;-62
2022/11/13 02:59:17;;;;;;;14.70;5.47;;;;;;;;;;5014597;28;20112;-62
2022/11/13 03:01:46;;;;;;;19.67;5.88;;;;;;;;;;5014428;28;20034;-63
2022/11/13 03:04:13;;;;;;;16.23;5.32;;;;;;;;;;5014209;28;20031;-62
2022/11/13 03:06:41;;;;;;;15.75;5.25;;;;;;;;;;5014437;28;20041;-62
2022/11/13 03:09:08;;;;;;;19.15;5.43;;;;;;;;;;5014367;28;20033;-62
2022/11/13 03:11:35;;;;;;;13.93;4.97;;;;;;;;;;5014746;28;20037;-63
2022/11/13 03:14:02;;;;;;;15.93;4.90;;;;;;;;;;5014431;28;20073;-62
2022/11/13 03:16:29;;;;;;;16.92;5.10;;;;;;;;;;5014280;28;20480;-62
2022/11/13 03:18:57;;;;;;;13.52;4.90;;;;;;;;;;5013255;28;20112;-62
2022/11/13 03:21:25;;;;;;;13.63;4.70;;;;;;;;;;5014130;28;20472;-62
2022/11/13 03:23:54;;;;;;;11.23;4.88;;;;;;;;;;5014379;28;20038;-63
2022/11/13 03:26:22;;;;;;;13.93;4.95;;;;;;;;;;5012987;28;20108;-62
2022/11/13 03:28:49;;;;;;;9.43;4.57;;;;;;;;;;5013932;28;20053;-62
2022/11/13 03:31:16;;;;;;;11.98;4.43;;;;;;;;;;5014021;28;20026;-62
2022/11/13 03:33:44;;;;;;;12.02;4.32;;;;;;;;;;5013820;28;20029;-62
2022/11/13 03:36:12;;;;;;;9.85;4.28;;;;;;;;;;5013995;28;20018;-62
2022/11/13 03:38:39;;;;;;;9.43;4.20;;;;;;;;;;5013854;28;20096;-62
2022/11/13 03:41:06;;;;;;;8.80;4.05;;;;;;;;;;5013932;28;20026;-62
2022/11/13 03:43:34;;;;;;;9.30;3.97;;;;;;;;;;5013960;28;20053;-62
2022/11/13 03:46:01;;;;;;;10.32;3.90;;;;;;;;;;5013981;28;20086;-63
2022/11/13 03:48:28;;;;;;;10.68;4.05;;;;;;;;;;5013721;28;20088;-62
2022/11/13 03:50:55;;;;;;;13.13;4.38;;;;;;;;;;5013956;28;20049;-62
2022/11/13 03:53:22;;;;;;;8.63;3.85;;;;;;;;;;5013667;28;20061;-62
2022/11/13 03:55:49;;;;;;;8.68;3.80;;;;;;;;;;5013728;28;20087;-62
2022/11/13 03:58:16;;;;;;;10.30;3.63;;;;;;;;;;5013510;28;20026;-62
2022/11/13 04:00:43;;;;;;;8.57;3.63;;;;;;;;;;5013781;28;20037;-62
2022/11/13 04:03:10;;;;;;;8.98;3.65;;;;;;;;;;5013848;28;20033;-62
2022/11/13 04:05:38;;;;;;;8.23;3.53;;;;;;;;;;5013642;28;20064;-62
2022/11/13 04:08:05;;;;;;;6.88;3.33;;;;;;;;;;5013548;28;20272;-62
2022/11/13 04:10:33;;;;;;;5.93;3.10;;;;;;;;;;5013534;28;20034;-62
2022/11/13 04:13:00;;;;;;;8.70;3.50;;;;;;;;;;5013612;28;20087;-62
2022/11/13 04:15:27;;;;;;;6.15;3.10;;;;;;;;;;5013533;28;20037;-62
2022/11/13 04:17:54;;;;;;;8.35;3.20;;;;;;;;;;5013532;28;20388;-62
2022/11/13 04:20:21;;;;;;;7.15;3.10;;;;;;;;;;5013477;28;20029;-63
2022/11/13 04:22:48;;;;;;;7.82;3.22;;;;;;;;;;5013356;28;20108;-62
2022/11/13 04:25:15;;;;;;;7.97;3.17;;;;;;;;;;5013421;28;20044;-62
2022/11/13 04:27:42;;;;;;;5.35;3.20;;;;;;;;;;5009714;28;20496;-62
2022/11/13 04:30:09;;;;;;;8.00;3.70;;;;;;;;;;5003047;28;20033;-62
2022/11/13 04:32:36;;;;;;;5.35;2.72;;;;;;;;;;5013128;28;20042;-62
2022/11/13 04:35:04;;;;;;;8.32;3.10;;;;;;;;;;5013395;28;20395;-62
2022/11/13 04:37:31;;;;;;;4.68;2.80;;;;;;;;;;5012915;28;20030;-63
2022/11/13 04:39:58;;;;;;;5.72;3.15;;;;;;;;;;5013400;28;20088;-62
2022/11/13 04:45:10;;;;;;;5.32;2.70;;;;;;;;;;5013158;28;20048;-62
2022/11/13 04:47:37;;;;;;;5.45;3.10;;;;;;;;;;5012969;28;20065;-62
2022/11/13 04:50:04;;;;;;;6.80;3.17;;;;;;;;;;5012787;28;20033;-62
2022/11/13 04:52:32;;;;;;;7.70;2.88;;;;;;;;;;5012887;28;20045;-63
2022/11/13 04:54:58;;;;;;;5.40;2.80;;;;;;;;;;5012838;28;20029;-63
2022/11/13 04:57:25;;;;;;;6.97;2.60;;;;;;;;;;5013014;28;20030;-62
2022/11/13 04:59:52;;;;;;;7.25;3.00;;;;;;;;;;5013069;28;20571;-62
2022/11/13 05:02:19;;;;;;;5.00;2.80;;;;;;;;;;5012972;28;20091;-62
2022/11/13 05:04:46;;;;;;;7.07;2.58;;;;;;;;;;5012788;28;20551;-62
2022/11/13 05:07:13;;;;;;;5.15;2.70;;;;;;;;;;5012689;28;20072;-62
2022/11/13 05:09:40;;;;;;;4.50;2.40;;;;;;;;;;5012930;28;20552;-62
2022/11/13 05:12:08;;;;;;;5.30;2.60;;;;;;;;;;5012750;28;20030;-62
2022/11/13 05:14:38;;;;;;;5.25;2.55;;;;;;;;;;5012785;28;20093;-62
2022/11/13 05:17:05;;;;;;;4.72;2.72;;;;;;;;;;5012558;28;20411;-64
2022/11/13 05:19:33;;;;;;;5.53;2.60;;;;;;;;;;5006515;28;20026;-62
2022/11/13 05:22:00;;;;;;;3.45;2.25;;;;;;;;;;5005390;28;20075;-62
2022/11/13 05:24:27;;;;;;;4.47;2.67;;;;;;;;;;5012455;28;20033;-63
2022/11/13 05:26:54;;;;;;;4.10;2.30;;;;;;;;;;5011205;28;20083;-62
2022/11/13 05:29:21;;;;;;;6.43;2.42;;;;;;;;;;5012401;28;20034;-62
2022/11/13 05:31:48;;;;;;;4.68;2.55;;;;;;;;;;5012650;28;20495;-62
2022/11/13 05:34:15;;;;;;;6.80;2.63;;;;;;;;;;5012559;28;20042;-62
2022/11/13 05:36:42;;;;;;;5.63;2.25;;;;;;;;;;5012447;28;20531;-62
2022/11/13 05:39:09;;;;;;;3.90;2.30;;;;;;;;;;5012513;28;20033;-62
2022/11/13 05:41:36;;;;;;;4.93;2.17;;;;;;;;;;5012449;28;20037;-62
2022/11/13 05:44:03;;;;;;;4.13;2.53;;;;;;;;;;5015546;28;20026;-62
2022/11/13 05:46:30;;;;;;;3.92;2.10;;;;;;;;;;5016274;28;20369;-62
2022/11/13 05:48:58;;;;;;;4.18;2.20;;;;;;;;;;5016266;28;20044;-62
2022/11/13 05:51:29;;;;;;;4.82;2.13;;;;;;;;;;5016078;28;20057;-62
2022/11/13 05:53:57;;;;;;;4.15;2.17;;;;;;;;;;5016216;28;20088;-62
2022/11/13 05:56:28;;;;;;;4.30;2.22;;;;;;;;;;5015944;28;20018;-63
2022/11/13 05:58:56;;;;;;;4.53;2.13;;;;;;;;;;5016111;28;20053;-62
2022/11/13 06:01:24;;;;;;;3.65;1.77;;;;;;;;;;5014283;28;20495;-62
2022/11/13 06:03:52;;;;;;;5.22;2.10;;;;;;;;;;5016146;28;20053;-62
2022/11/13 06:06:20;;;;;;;4.00;2.10;;;;;;;;;;5016101;28;20033;-62
2022/11/13 06:08:47;;;;;;;3.20;2.00;;;;;;;;;;5015866;28;20046;-62
2022/11/13 06:11:18;;;;;;;4.03;2.13;;;;;;;;;;5016142;28;20479;-62
2022/11/13 06:13:45;;;;;;;4.80;2.17;;;;;;;;;;5015957;28;20504;-62
2022/11/13 06:16:14;;;;;;;4.10;1.92;;;;;;;;;;5016081;28;20026;-62
2022/11/13 06:18:41;;;;;;;3.75;1.80;;;;;;;;;;5015839;28;20021;-62
2022/11/13 06:21:12;;;;;;;4.13;1.92;;;;;;;;;;5015397;28;20026;-62
2022/11/13 06:23:40;;;;;;;6.00;2.30;;;;;;;;;;5015741;28;20026;-62
2022/11/13 06:26:08;;;;;;;5.70;2.10;;;;;;;;;;5015567;28;20498;-63
2022/11/13 06:28:36;;;;;;;4.10;1.90;;;;;;;;;;5015544;28;20172;-62
2022/11/13 06:31:07;;;;;;;3.90;1.85;;;;;;;;;;5015623;28;20022;-62
2022/11/13 06:33:34;;;;;;;3.22;1.92;;;;;;;;;;5015716;28;20101;-62
2022/11/13 06:36:02;;;;;;;3.38;1.88;;;;;;;;;;5015562;28;20479;-62
2022/11/13 06:38:33;;;;;;;2.42;1.70;;;;;;;;;;5015444;28;20357;-62
2022/11/13 06:41:00;;;;;;;3.72;1.73;;;;;;;;;;5015480;28;20029;-62
2022/11/13 06:43:27;;;;;;;5.78;2.20;;;;;;;;;;5015423;28;20088;-62
2022/11/13 06:45:54;;;;;;;4.00;1.55;;;;;;;;;;5015486;28;20061;-62
2022/11/13 06:48:21;;;;;;;3.33;1.83;;;;;;;;;;5015134;28;20127;-62
2022/11/13 06:50:49;;;;;;;3.22;1.63;;;;;;;;;;5015348;28;20030;-62
2022/11/13 06:53:16;;;;;;;4.03;1.90;;;;;;;;;;5014858;28;20050;-62
2022/11/13 06:55:46;;;;;;;3.08;1.60;;;;;;;;;;5015421;28;20039;-62
2022/11/13 06:58:14;;;;;;;2.70;1.50;;;;;;;;;;5015231;28;20022;-62
2022/11/13 07:00:41;;;;;;;6.72;1.73;;;;;;;;;;5015046;28;20065;-62
2022/11/13 07:03:16;;;;;;;5.15;1.70;;;;;;;;;;5015183;28;20060;-62
2022/11/13 07:05:43;;;;;;;4.53;1.52;;;;;;;;;;5014974;28;20113;-62
2022/11/13 07:08:10;;;;;;;2.83;1.38;;;;;;;;;;5014791;28;20587;-62
2022/11/13 07:10:37;;;;;;;3.53;1.50;;;;;;;;;;5013492;28;20554;-62
2022/11/13 07:13:04;;;;;;;3.88;1.85;;;;;;;;;;5015032;28;20032;-62
2022/11/13 07:15:35;;;;;;;4.00;1.75;;;;;;;;;;5014754;28;20113;-62
2022/11/13 07:18:03;;;;;;;3.38;1.42;;;;;;;;;;5014798;28;20033;-62
2022/11/13 07:20:30;;;;;;;2.72;1.35;;;;;;;;;;5014646;28;20021;-62
2022/11/13 07:23:00;;;;;;;3.70;1.52;;;;;;;;;;5014706;28;20531;-62
2022/11/13 07:25:28;;;;;;;3.30;1.58;;;;;;;;;;5014531;28;20048;-63
2022/11/13 07:27:55;;;;;;;3.28;1.70;;;;;;;;;;5014391;28;20061;-62
2022/11/13 07:30:22;;;;;;;5.13;1.48;;;;;;;;;;5014712;28;20532;-62
2022/11/13 07:32:49;;;;;;;4.30;1.52;;;;;;;;;;5014384;28;20026;-62
2022/11/13 07:35:16;;;;;;;3.30;1.55;;;;;;;;;;5014468;28;20040;-62
2022/11/13 07:37:44;;;;;;;5.38;1.67;;;;;;;;;;5014214;28;20091;-62
2022/11/13 07:40:12;;;;;;;1.85;1.13;;;;;;;;;;5014424;28;20723;-62
2022/11/13 07:42:39;;;;;;;2.72;1.38;;;;;;;;;;5014337;28;20032;-62
2022/11/13 07:45:06;;;;;;;5.30;1.48;;;;;;;;;;5014293;28;20025;-62
2022/11/13 07:47:33;;;;;;;2.17;1.50;;;;;;;;;;5012756;28;20033;-63
2022/11/13 07:50:00;;;;;;;4.00;1.30;;;;;;;;;;5014140;28;20032;-62
2022/11/13 07:52:28;;;;;;;3.38;1.30;;;;;;;;;;5013949;28;20422;-62
2022/11/13 07:54:55;;;;;;;2.67;1.23;;;;;;;;;;5013999;28;20523;-62
2022/11/13 07:57:22;;;;;;;3.58;1.67;;;;;;;;;;5013928;28;20026;-62
2022/11/13 07:59:49;;;;;;;3.40;1.30;;;;;;;;;;5014058;28;20034;-62
2022/11/13 08:02:16;;;;;;;2.58;1.20;;;;;;;;;;5012571;28;20029;-62
2022/11/13 08:04:43;;;;;;;2.42;1.27;;;;;;;;;;5014020;28;20104;-62
2022/11/13 08:07:11;;;;;;;3.22;1.15;;;;;;;;;;5013195;28;20033;-62
2022/11/13 08:09:39;;;;;;;2.75;1.25;;;;;;;;;;5013933;28;20083;-62
2022/11/13 08:12:06;;;;;;;2.03;1.00;;;;;;;;;;5012412;28;20156;-62
2022/11/13 08:14:33;;;;;;;2.58;1.30;;;;;;;;;;5013752;28;20041;-63
2022/11/13 08:17:00;;;;;;;1.98;1.20;;;;;;;;;;5013711;28;20024;-62
2022/11/13 08:19:26;;;;;;;3.50;1.17;;;;;;;;;;5013581;28;20037;-62
2022/11/13 08:21:53;;;;;;;2.50;1.00;;;;;;;;;;5013743;28;20036;-62
2022/11/13 08:24:20;;;;;;;2.63;1.15;;;;;;;;;;5013554;28;20018;-62
2022/11/13 08:26:47;;;;;;;3.67;1.23;;;;;;;;;;5013250;28;20033;-63
2022/11/13 08:29:14;;;;;;;2.45;1.00;;;;;;;;;;5012144;28;20037;-62
2022/11/13 08:31:41;;;;;;;1.60;0.95;;;;;;;;;;5013593;28;20028;-63
2022/11/13 08:34:08;;;;;;;2.35;1.13;;;;;;;;;;5013438;28;20121;-62
2022/11/13 08:36:35;;;;;;;2.58;1.30;;;;;;;;;;5013329;28;20030;-63
2022/11/13 08:39:02;;;;;;;3.60;0.90;;;;;;;;;;5013444;28;20053;-62
2022/11/13 08:41:29;;;;;;;2.75;1.27;;;;;;;;;;5013094;28;20033;-62
2022/11/13 08:43:56;;;;;;;3.28;1.20;;;;;;;;;;5013286;28;20037;-62
2022/11/13 08:46:23;;;;;;;4.05;1.00;;;;;;;;;;5012939;28;20022;-63
2022/11/13 08:48:50;;;;;;;4.60;1.05;;;;;;;;;;5013108;28;20042;-63
2022/11/13 08:51:17;;;;;;;1.45;0.93;;;;;;;;;;5013028;28;20030;-63
2022/11/13 08:53:44;;;;;;;2.30;1.00;;;;;;;;;;5012783;28;20041;-62
2022/11/13 08:56:11;;;;;;;1.67;0.95;;;;;;;;;;5013029;28;20022;-63
2022/11/13 08:58:38;;;;;;;2.28;1.10;;;;;;;;;;5013098;28;20018;-63
2022/11/13 09:01:05;;;;;;;3.90;1.10;;;;;;;;;;5013093;28;20508;-62
2022/11/13 09:03:34;;;;;;;1.63;0.80;;;;;;;;;;5012886;28;20070;-63
2022/11/13 09:06:04;;;;;;;2.88;1.13;;;;;;;;;;5011764;28;20369;-63
2022/11/13 09:08:31;;;;;;;2.05;1.17;;;;;;;;;;5012720;28;20065;-62
2022/11/13 09:11:03;;;;;;;1.83;0.90;;;;;;;;;;5011518;28;20805;-63
2022/11/13 09:13:30;;;;;;;4.13;0.82;;;;;;;;;;5012713;28;20040;-62
2022/11/13 09:15:58;;;;;;;2.00;1.05;;;;;;;;;;5012709;28;20036;-62
2022/11/13 09:18:25;;;;;;;1.38;0.80;;;;;;;;;;5011727;28;20112;-63
2022/11/13 09:20:52;;;;;;;1.75;0.90;;;;;;;;;;5012675;28;20034;-62
2022/11/13 09:23:19;;;;;;;3.45;0.98;;;;;;;;;;5012741;28;20030;-62
2022/11/13 09:25:46;;;;;;;2.03;0.85;;;;;;;;;;5012571;28;20041;-63
2022/11/13 09:28:13;;;;;;;1.92;0.70;;;;;;;;;;5012685;28;20073;-63
2022/11/13 09:30:40;;;;;;;1.70;0.82;;;;;;;;;;5012714;28;20121;-62
2022/11/13 09:33:07;;;;;;;1.60;1.00;;;;;;;;;;5012690;28;20025;-63
2022/11/13 09:35:34;;;;;;;2.83;0.75;;;;;;;;;;5012682;28;20034;-63
2022/11/13 09:38:02;;;;;;;2.92;0.88;;;;;;;;;;5012440;28;20049;-62
2022/11/13 09:40:42;;;;;;;1.75;0.90;;;;;;;;;;5012497;28;20508;-62
2022/11/13 09:43:29;;;;;;;2.15;1.10;;;;;;;;;;5012412;28;20103;-63
2022/11/13 09:45:58;;;;;;;1.95;0.80;;;;;;;;;;5011976;28;20038;-62
2022/11/13 09:48:32;;;;;;;2.58;0.95;;;;;;;;;;5012522;28;20037;-62
2022/11/13 09:51:00;;;;;;;1.73;0.90;;;;;;;;;;5012738;28;20361;-62
2022/11/13 09:53:29;;;;;;;3.25;0.90;;;;;;;;;;5012097;28;20439;-63
2022/11/13 09:56:02;;;;;;;1.52;0.90;;;;;;;;;;5012435;28;20053;-62
2022/11/13 09:58:34;;;;;;;2.72;0.80;;;;;;;;;;5012515;28;20026;-62
2022/11/13 10:01:01;;;;;;;;;;;;;;;;;;5012838;28;20036;-63
2022/11/13 10:03:31;;;;;;;2.10;0.90;;;;;;;;;;5012430;28;20249;-62
2022/11/13 10:06:33;;;;;;;3.60;0.82;;;;;;;;;;5012373;28;20361;-62
2022/11/13 10:09:05;;;;;;;1.38;0.68;;;;;;;;;;5029512;28;20041;-63
2022/11/13 10:12:05;;;;;;;1.70;0.80;;;;;;;;;;5014874;28;20045;-63
2022/11/13 10:14:37;;;;;;;1.23;0.50;;;;;;;;;;5010570;28;20083;-62
2022/11/13 10:17:19;;;;;;;2.00;0.75;;;;;;;;;;5012315;28;20082;-62
2022/11/13 10:20:04;;;;;;;0.75;0.50;;;;;;;;;;5012338;28;20034;-62
2022/11/13 10:22:43;;;;;;;3.08;0.70;;;;;;;;;;5012125;28;20033;-62
2022/11/13 10:25:26;;;;;;;0.85;0.50;;;;;;;;;;5012313;28;20620;-63
2022/11/13 10:27:53;;;;;;;;;;;;;;;;;;5010983;28;20084;-62
2022/11/13 10:30:20;;;;;;;1.23;0.57;;;;;;;;;;5015446;28;20334;-63
2022/11/13 10:32:47;;;;;;;1.27;0.77;;;;;;;;;;5015538;28;20515;-63
2022/11/13 10:35:33;;;;;;;1.17;0.65;;;;;;;;;;5015695;28;20026;-63
2022/11/13 10:38:05;;;;;;;1.27;0.70;;;;;;;;;;5015420;28;20024;-62
2022/11/13 10:40:35;;;;;;;1.90;0.70;;;;;;;;;;5015569;28;20117;-63
2022/11/13 10:43:28;;;;;;;1.33;0.75;;;;;;;;;;5015491;28;20038;-63
2022/11/13 10:46:05;;;;;;;1.20;0.63;;;;;;;;;;5015158;28;20061;-63
2022/11/13 10:48:32;;;;;;;1.13;0.60;;;;;;;;;;5015326;28;20081;-63
2022/11/13 10:51:03;;;;;;;1.58;0.75;;;;;;;;;;5015322;28;20476;-63
2022/11/13 10:53:38;;;;;;;0.88;0.50;;;;;;;;;;5014993;28;20050;-63
2022/11/13 10:56:21;;;;;;;1.17;0.70;;;;;;;;;;5015284;28;20049;-63
2022/11/13 10:58:47;;;;;;;;;;;;;;;;;;5015843;28;20026;-63
2022/11/13 11:01:15;;;;;;;1.42;0.70;;;;;;;;;;5015571;28;20260;-63
2022/11/13 11:03:49;;;;;;;2.60;0.75;;;;;;;;;;5014545;28;20037;-63
2022/11/13 11:06:16;;;;;;;1.17;0.70;;;;;;;;;;5015066;28;20063;-63
2022/11/13 11:08:43;;;;;;;1.92;0.73;;;;;;;;;;5014780;28;20042;-63
2022/11/13 11:14:22;;;;;;;1.52;0.50;;;;;;;;;;5015081;28;20052;-63
2022/11/13 11:16:49;;;;;;;0.68;0.40;;;;;;;;;;5014820;28;20040;-63
2022/11/13 11:19:17;;;;;;;1.10;0.68;;;;;;;;;;5014761;28;20057;-63
2022/11/13 11:21:45;;;;;;;1.73;0.65;;;;;;;;;;5014897;28;20029;-63
2022/11/13 11:24:24;;;;;;;1.35;0.47;;;;;;;;;;5014791;28;20042;-63
2022/11/13 11:26:59;;;;;;;1.85;0.60;;;;;;;;;;5014604;28;20037;-63
2022/11/13 11:29:32;;;;;;;0.85;0.50;;;;;;;;;;5013216;28;20399;-63
2022/11/13 11:32:10;;;;;;;1.52;0.45;;;;;;;;;;5014608;28;20472;-63
2022/11/13 11:34:55;;;;;;;1.05;0.50;;;;;;;;;;5014585;28;20369;-63
2022/11/13 11:37:28;;;;;;;0.75;0.50;;;;;;;;;;5014528;28;20033;-63
2022/11/13 11:40:00;;;;;;;0.82;0.50;;;;;;;;;;5013851;28;20534;-63
2022/11/13 11:42:27;;;;;;;1.20;0.40;;;;;;;;;;5014267;28;20030;-63
2022/11/13 11:45:13;;;;;;;1.52;0.60;;;;;;;;;;5014168;28;20490;-63
2022/11/13 11:47:48;;;;;;;1.42;0.68;;;;;;;;;;5013977;28;20502;-63
2022/11/13 11:50:31;;;;;;;2.42;0.57;;;;;;;;;;5014262;28;20030;-62
2022/11/13 11:52:58;;;;;;;0.57;0.43;;;;;;;;;;5013779;28;20133;-63
2022/11/13 11:55:39;;;;;;;0.98;0.50;;;;;;;;;;5014040;28;20034;-62
2022/11/13 11:58:41;;;;;;;1.58;0.60;;;;;;;;;;5014059;28;20109;-62
2022/11/13 12:01:17;;;;;;;1.42;0.70;;;;;;;;;;5011885;28;20069;-62
2022/11/13 12:03:51;;;;;;;1.33;0.50;;;;;;;;;;5013289;28;20111;-63
2022/11/13 12:06:18;;;;;;;2.03;0.60;;;;;;;;;;5013806;28;20065;-62
2022/11/13 12:09:02;;;;;;;2.10;0.80;;;;;;;;;;5013159;28;20484;-63
2022/11/13 12:11:31;;;;;;;1.30;0.55;;;;;;;;;;5013490;28;20025;-63
2022/11/13 12:14:16;;;;;;;1.55;0.70;;;;;;;;;;5013365;28;20096;-62
2022/11/13 12:16:43;;;;;;;1.67;0.60;;;;;;;;;;5011801;28;20033;-63
2022/11/13 12:19:29;;;;;;;1.77;0.52;;;;;;;;;;5011541;28;20030;-63
2022/11/13 12:22:16;;;;;;;1.58;0.70;;;;;;;;;;5012699;28;20018;-63
2022/11/13 12:24:43;;;;;;;1.25;0.45;;;;;;;;;;5012823;28;20443;-62
2022/11/13 12:27:18;;;;;;;1.30;0.55;;;;;;;;;;5012637;28;20030;-63
2022/11/13 12:29:58;;;;;;;1.95;0.70;;;;;;;;;;5011349;28;20033;-63
2022/11/13 12:32:31;;;;;;;1.70;0.40;;;;;;;;;;5011471;28;20057;-63
2022/11/13 12:35:04;;;;;;;2.53;0.70;;;;;;;;;;5012048;28;20440;-63
2022/11/13 12:37:51;;;;;;;1.05;0.40;;;;;;;;;;5012051;28;20022;-63
2022/11/13 12:40:30;;;;;;;2.20;0.60;;;;;;;;;;5009843;28;20044;-64
2022/11/13 12:43:03;;;;;;;1.77;0.47;;;;;;;;;;5011637;28;20049;-63
2022/11/13 12:45:36;;;;;;;0.88;0.40;;;;;;;;;;5011983;28;20049;-63
2022/11/13 12:48:18;;;;;;;1.77;0.50;;;;;;;;;;5011905;28;20037;-62
2022/11/13 12:50:58;;;;;;;1.23;0.50;;;;;;;;;;5011725;28;20025;-63
2022/11/13 12:53:28;;;;;;;1.63;0.50;;;;;;;;;;5011206;28;20524;-63
2022/11/13 12:55:59;;;;;;;0.95;0.55;;;;;;;;;;5011689;28;20030;-63
2022/11/13 12:58:33;;;;;;;2.15;0.50;;;;;;;;;;5011818;28;20030;-63
2022/11/13 13:01:06;;;;;;;0.93;0.43;;;;;;;;;;5011375;28;20026;-63
2022/11/13 13:03:33;;;;;;;1.73;0.40;;;;;;;;;;5011677;28;20472;-63
2022/11/13 13:06:00;;;;;;;1.45;0.40;;;;;;;;;;5011363;28;20064;-63
2022/11/13 13:08:45;;;;;;;0.70;0.55;;;;;;;;;;5011328;28;20088;-62
2022/11/13 13:11:12;;;;;;;0.73;0.40;;;;;;;;;;5012065;28;20024;-63
2022/11/13 13:13:42;;;;;;;0.98;0.40;;;;;;;;;;5012158;28;20032;-62
2022/11/13 13:16:10;;;;;;;1.42;0.38;;;;;;;;;;5012553;28;20029;-63
2022/11/13 13:18:38;;;;;;;3.35;0.60;;;;;;;;;;5011562;28;20104;-64
2022/11/13 13:21:05;;;;;;;3.25;0.40;;;;;;;;;;5011824;28;20454;-64
2022/11/13 13:23:43;;;;;;;1.20;0.47;;;;;;;;;;5012115;28;20030;-63
2022/11/13 13:26:16;;;;;;;0.60;0.30;;;;;;;;;;5011575;28;20022;-63
2022/11/13 13:29:03;;;;;;;2.97;0.50;;;;;;;;;;5011612;28;20033;-64
2022/11/13 13:31:33;;;;;;;1.85;0.38;;;;;;;;;;5010430;28;20048;-63
2022/11/13 13:34:13;;;;;;;1.52;0.50;;;;;;;;;;5010177;28;20065;-63
2022/11/13 13:36:46;;;;;;;1.40;0.30;;;;;;;;;;5011735;28;20026;-64
2022/11/13 13:39:37;;;;;;;0.65;0.40;;;;;;;;;;5011324;28;20018;-64
2022/11/13 13:42:07;;;;;;;2.05;0.50;;;;;;;;;;5011312;28;20697;-64
2022/11/13 13:44:37;;;;;;;1.58;0.52;;;;;;;;;;5011099;28;20022;-64
2022/11/13 13:47:10;;;;;;;1.38;0.38;;;;;;;;;;5011352;28;20061;-63
2022/11/13 13:49:37;;;;;;;1.45;0.50;;;;;;;;;;5011493;28;20026;-64
2022/11/13 13:52:11;;;;;;;0.93;0.38;;;;;;;;;;5011539;28;20168;-63
2022/11/13 13:54:40;;;;;;;1.05;0.35;;;;;;;;;;5011383;28;20030;-64
2022/11/13 13:57:11;;;;;;;1.42;0.40;;;;;;;;;;5011585;28;20108;-64
2022/11/13 13:59:38;;;;;;;1.23;0.45;;;;;;;;;;5011241;28;20033;-64
2022/11/13 14:02:14;;;;;;;1.52;0.43;;;;;;;;;;5009722;28;20033;-65
2022/11/13 14:04:48;;;;;;;2.10;0.60;;;;;;;;;;5011783;28;20484;-63
2022/11/13 14:07:22;;;;;;;1.00;0.60;;;;;;;;;;5015520;28;20048;-63
2022/11/13 14:09:50;;;;;;;1.85;0.70;;;;;;;;;;5013761;28;20029;-64
2022/11/13 14:12:19;;;;;;;1.73;0.80;;;;;;;;;;5015493;28;20033;-63
2022/11/13 14:14:46;;;;;;;1.80;0.95;;;;;;;;;;5015461;28;20037;-64
2022/11/13 14:17:21;;;;;;;1.65;0.90;;;;;;;;;;5015311;28;20018;-64
2022/11/13 14:19:52;;;;;;;0.90;0.80;;;;;;;;;;5015276;28;20018;-63
2022/11/13 14:22:19;;;;;;;1.75;1.40;;;;;;;;;;5014337;28;20041;-64
2022/11/13 14:24:52;;;;;;;2.67;1.50;;;;;;;;;;5012567;28;20026;-64
2022/11/13 14:27:24;;;;;;;4.57;2.40;;;;;;;;;;5014762;28;20133;-63
2022/11/13 14:29:56;;;;;;;5.32;2.95;;;;;;;;;;5014730;28;20506;-63
2022/11/13 14:32:23;;;;;;;;;;;;;;;;;;5015622;28;20029;-63
2022/11/13 14:34:52;;;;;;;8.13;2.05;;;;;;;;;;5015503;28;19909;-64
2022/11/13 14:37:21;;;;;;;7.22;1.92;;;;;;;;;;5015729;28;20037;-63
2022/11/13 14:39:50;;;;;;;9.57;1.92;;;;;;;;;;5015388;28;20100;-63
2022/11/13 14:42:22;;;;;;;5.72;2.13;;;;;;;;;;5014439;28;20092;-63
2022/11/13 14:44:49;;;;;;;6.88;1.70;;;;;;;;;;5013995;28;20022;-64
2022/11/13 14:47:24;;;;;;;5.57;1.50;;;;;;;;;;5014282;28;20080;-64
2022/11/13 14:49:51;;;;;;;4.53;1.50;;;;;;;;;;5014004;28;20029;-66
2022/11/13 14:52:22;;;;;;;6.90;2.00;;;;;;;;;;5011180;28;20100;-65
2022/11/13 14:55:00;;;;;;;5.72;4.40;;;;;;;;;;5014779;28;20080;-64
2022/11/13 14:57:27;;;;;;;3.78;2.50;;;;;;;;;;5014564;28;20022;-64
2022/11/13 14:59:54;;;;;;;5.95;4.97;;;;;;;;;;5014499;28;20058;-64
2022/11/13 15:02:21;;;;;;;9.30;6.93;;;;;;;;;;5014946;28;20093;-63